createdAt,value
2018-06-04T00:00:21.770Z,95.50
2018-06-04T00:02:52.373Z,95.70
2018-06-04T00:05:23.132Z,95.60
2018-06-04T00:07:51.716Z,96.60
2018-06-04T00:10:20.313Z,97.00
2018-06-04T00:12:48.948Z,96.50
2018-06-04T00:15:17.544Z,96.20
2018-06-04T00:17:46.275Z,96.70
2018-06-04T00:20:17.078Z,96.80
2018-06-04T00:22:45.705Z,97.60
2018-06-04T00:51:13.526Z,97.00
2018-06-04T00:53:43.245Z,96.80
2018-06-04T00:56:20.081Z,99.90
2018-06-04T01:01:18.081Z,99.90
2018-06-04T01:03:48.495Z,99.90
2018-06-04T01:06:19.506Z,99.90
2018-06-04T01:08:49.292Z,99.90
2018-06-04T01:11:20.317Z,99.90
2018-06-04T01:13:51.665Z,99.90
2018-06-04T01:16:21.323Z,99.90
2018-06-04T01:18:49.951Z,99.90
2018-06-04T01:21:19.588Z,99.90
2018-06-04T01:23:48.185Z,99.90
2018-06-04T01:26:17.119Z,99.90
2018-06-04T01:28:45.822Z,99.90
2018-06-04T01:31:14.426Z,99.90
2018-06-04T01:33:43.047Z,99.90
2018-06-04T01:36:13.713Z,99.90
2018-06-04T01:38:42.374Z,99.90
2018-06-04T01:41:11.975Z,99.90
2018-06-04T01:43:40.581Z,99.90
2018-06-04T01:46:11.274Z,99.90
2018-06-04T02:14:36.601Z,99.90
2018-06-04T02:17:06.477Z,99.90
2018-06-04T02:19:35.065Z,99.90
2018-06-04T02:22:03.972Z,99.90
2018-06-04T02:24:32.594Z,99.90
2018-06-04T02:27:01.188Z,99.90
2018-06-04T02:29:30.797Z,99.90
2018-06-04T02:44:58.842Z,99.90
2018-06-04T02:47:27.447Z,99.90
2018-06-04T02:49:56.153Z,99.90
2018-06-04T02:52:26.769Z,99.90
2018-06-04T02:54:55.366Z,99.90
2018-06-04T02:57:24.944Z,99.90
2018-06-04T03:02:22.018Z,99.90
2018-06-04T03:07:19.942Z,99.90
2018-06-04T03:09:50.073Z,99.90
2018-06-04T03:12:18.725Z,99.90
2018-06-04T03:30:16.958Z,99.90
2018-06-04T03:32:45.576Z,99.90
2018-06-04T03:35:14.268Z,99.90
2018-06-04T03:37:42.957Z,99.90
2018-06-04T03:40:12.527Z,99.90
2018-06-04T03:55:40.432Z,99.90
2018-06-04T03:58:09.047Z,99.90
2018-06-04T04:00:37.666Z,99.90
2018-06-04T04:03:06.466Z,99.90
2018-06-04T04:05:35.788Z,99.90
2018-06-04T04:08:05.535Z,99.90
2018-06-04T04:10:34.179Z,99.90
2018-06-04T04:13:02.809Z,99.60
2018-06-04T04:15:33.594Z,99.80
2018-06-04T04:18:02.274Z,99.30
2018-06-04T04:20:30.966Z,98.50
2018-06-04T04:23:00.580Z,97.70
2018-06-04T04:25:29.219Z,96.60
2018-06-04T04:27:57.898Z,95.50
2018-06-04T04:30:26.537Z,95.20
2018-06-04T04:32:57.310Z,94.40
2018-06-04T04:35:25.906Z,93.70
2018-06-04T04:37:55.600Z,93.00
2018-06-04T04:40:25.239Z,91.90
2018-06-04T04:42:55.029Z,91.90
2018-06-04T04:45:24.673Z,91.00
2018-06-04T04:47:53.415Z,90.70
2018-06-04T04:50:22.830Z,90.00
2018-06-04T04:52:51.427Z,90.20
2018-06-04T04:55:20.132Z,88.90
2018-06-04T04:57:49.724Z,86.90
2018-06-04T05:00:18.363Z,86.50
2018-06-04T05:02:47.160Z,86.40
2018-06-04T05:05:15.771Z,84.80
2018-06-04T05:07:44.399Z,85.40
2018-06-04T05:10:13.840Z,85.40
2018-06-04T05:12:42.532Z,83.80
2018-06-04T05:15:13.138Z,83.90
2018-06-04T05:17:41.786Z,83.70
2018-06-04T05:20:12.793Z,84.40
2018-06-04T05:22:41.451Z,84.40
2018-06-04T05:25:10.143Z,84.60
2018-06-04T05:27:38.769Z,81.50
2018-06-04T05:30:08.343Z,82.20
2018-06-04T05:32:36.983Z,80.90
2018-06-04T05:35:05.642Z,82.00
2018-06-04T05:37:34.380Z,82.90
2018-06-04T05:53:02.486Z,83.90
2018-06-04T05:55:31.151Z,86.40
2018-06-04T06:11:00.625Z,94.50
2018-06-04T06:13:29.300Z,92.80
2018-06-04T06:15:59.925Z,93.90
2018-06-04T06:18:28.583Z,93.40
2018-06-04T06:20:59.186Z,92.50
2018-06-04T06:23:28.808Z,94.40
2018-06-04T06:25:58.576Z,95.00
2018-06-04T06:28:27.222Z,94.10
2018-06-04T06:43:54.385Z,94.20
2018-06-04T06:46:24.098Z,91.10
2018-06-04T06:48:53.760Z,85.60
2018-06-04T06:51:22.425Z,84.20
2018-06-04T06:56:19.412Z,83.40
2018-06-04T06:58:48.116Z,83.10
2018-06-04T07:01:16.820Z,79.30
2018-06-04T07:03:45.916Z,80.10
2018-06-04T07:06:14.550Z,81.30
2018-06-04T07:08:43.139Z,83.00
2018-06-04T07:11:11.844Z,84.70
2018-06-04T07:13:40.489Z,90.50
2018-06-04T07:16:10.118Z,87.90
2018-06-04T07:18:38.782Z,90.50
2018-06-04T07:21:07.451Z,91.00
2018-06-04T07:23:36.108Z,90.50
2018-06-04T07:26:04.702Z,92.70
2018-06-04T07:28:33.519Z,91.80
2018-06-04T07:31:02.145Z,90.40
2018-06-04T07:33:31.873Z,92.20
2018-06-04T07:36:08.971Z,92.00
2018-06-04T07:38:38.737Z,92.50
2018-06-04T07:41:07.406Z,93.00
2018-06-04T07:43:37.043Z,94.00
2018-06-04T07:46:06.688Z,94.50
2018-06-04T07:48:36.263Z,93.90
2018-06-04T07:51:05.076Z,96.50
2018-06-04T07:53:33.685Z,93.10
2018-06-04T07:56:02.313Z,92.70
2018-06-04T07:58:30.964Z,93.40
2018-06-04T08:01:00.606Z,94.70
2018-06-04T08:03:29.219Z,94.70
2018-06-04T08:05:59.020Z,95.10
2018-06-04T08:08:27.602Z,94.90
2018-06-04T08:10:56.250Z,96.50
2018-06-04T08:13:24.863Z,94.20
2018-06-04T08:15:53.607Z,93.70
2018-06-04T08:18:22.179Z,96.80
2018-06-04T08:20:50.825Z,94.80
2018-06-04T08:23:19.501Z,94.20
2018-06-04T08:25:48.206Z,94.70
2018-06-04T08:28:17.848Z,94.80
2018-06-04T08:30:47.419Z,95.70
2018-06-04T08:33:16.201Z,94.00
2018-06-04T08:35:44.865Z,94.60
2018-06-04T08:38:13.689Z,96.00
2018-06-04T08:40:43.287Z,96.40
2018-06-04T08:43:11.956Z,96.80
2018-06-04T08:45:40.636Z,96.80
2018-06-04T08:48:10.296Z,96.40
2018-06-04T08:50:38.904Z,95.60
2018-06-04T08:53:07.585Z,95.90
2018-06-04T08:55:36.169Z,95.30
2018-06-04T08:58:04.857Z,95.20
2018-06-04T09:00:33.523Z,94.90
2018-06-04T09:03:02.137Z,93.00
2018-06-04T09:05:30.864Z,94.40
2018-06-04T09:07:59.486Z,95.20
2018-06-04T09:10:28.164Z,92.50
2018-06-04T09:12:56.984Z,92.50
2018-06-04T09:15:25.606Z,93.20
2018-06-04T09:17:54.255Z,93.80
2018-06-04T09:20:22.870Z,92.30
2018-06-04T09:22:52.563Z,91.30
2018-06-04T09:25:21.224Z,91.90
2018-06-04T09:27:49.938Z,91.50
2018-06-04T09:30:19.584Z,92.30
2018-06-04T09:32:48.204Z,88.50
2018-06-04T09:35:16.815Z,92.90
2018-06-04T09:37:46.409Z,90.60
2018-06-04T09:40:15.985Z,93.90
2018-06-04T09:42:46.639Z,91.50
2018-06-04T09:45:15.268Z,90.50
2018-06-04T09:47:44.936Z,92.70
2018-06-04T09:50:13.584Z,91.30
2018-06-04T09:52:44.176Z,92.40
2018-06-04T09:55:12.807Z,91.30
2018-06-04T09:57:42.487Z,91.80
2018-06-04T10:00:12.223Z,91.10
2018-06-04T10:02:40.815Z,89.20
2018-06-04T10:05:09.526Z,91.90
2018-06-04T10:07:38.144Z,90.60
2018-06-04T10:10:08.796Z,85.20
2018-06-04T10:12:38.624Z,91.40
2018-06-04T10:15:07.191Z,88.30
2018-06-04T10:17:35.821Z,88.00
2018-06-04T10:20:05.483Z,90.30
2018-06-04T10:22:34.106Z,88.20
2018-06-04T10:25:02.676Z,90.00
2018-06-04T10:27:31.374Z,82.70
2018-06-04T10:30:00.023Z,85.70
2018-06-04T10:32:28.602Z,87.50
2018-06-04T11:00:57.865Z,91.10
2018-06-04T11:03:26.466Z,83.10
2018-06-04T11:05:55.099Z,78.60
2018-06-04T11:08:23.748Z,77.50
2018-06-04T11:10:54.570Z,75.80
2018-06-04T11:13:23.147Z,72.20
2018-06-04T11:15:51.944Z,78.90
2018-06-04T11:18:21.562Z,75.80
2018-06-04T11:20:50.236Z,72.10
2018-06-04T11:23:18.993Z,72.80
2018-06-04T11:25:47.666Z,80.70
2018-06-04T11:28:16.243Z,75.90
2018-06-04T11:30:44.872Z,75.70
2018-06-04T11:33:13.541Z,70.80
2018-06-04T11:35:42.128Z,74.70
2018-06-04T11:38:10.808Z,70.20
2018-06-04T11:40:39.383Z,71.10
2018-06-04T11:43:07.967Z,73.30
2018-06-04T11:45:37.644Z,71.50
2018-06-04T11:48:06.292Z,72.00
2018-06-04T11:50:34.909Z,70.40
2018-06-04T11:53:03.583Z,69.00
2018-06-04T11:55:32.162Z,77.00
2018-06-04T11:58:00.731Z,74.50
2018-06-04T12:00:29.560Z,74.70
2018-06-04T12:03:00.708Z,70.90
2018-06-04T12:05:29.699Z,76.10
2018-06-04T12:07:58.475Z,71.40
2018-06-04T12:10:27.095Z,73.90
2018-06-04T12:12:55.686Z,70.60
2018-06-04T12:15:24.276Z,69.90
2018-06-04T12:17:54.989Z,69.00
2018-06-04T12:20:23.582Z,72.30
2018-06-04T12:22:53.215Z,70.00
2018-06-04T12:25:21.818Z,71.70
2018-06-04T12:27:51.537Z,69.10
2018-06-04T12:30:20.248Z,75.20
2018-06-04T12:32:48.857Z,71.20
2018-06-04T12:42:33.224Z,69.30
2018-06-04T12:45:04.009Z,71.20
2018-06-04T12:50:51.257Z,68.10
2018-06-04T13:09:36.097Z,66.40
2018-06-04T13:12:04.789Z,70.80
2018-06-04T13:14:34.477Z,63.10
2018-06-04T13:30:01.447Z,71.50
2018-06-04T13:32:30.068Z,64.80
2018-06-04T13:34:58.662Z,66.50
2018-06-04T13:37:28.347Z,64.00
2018-06-04T13:39:59.006Z,68.40
2018-06-04T13:42:27.723Z,67.60
2018-06-04T13:44:58.379Z,68.50
2018-06-04T13:47:29.075Z,67.10
2018-06-04T13:49:57.807Z,64.40
2018-06-04T13:52:26.793Z,63.40
2018-06-04T13:54:56.400Z,68.20
2018-06-04T13:57:26.001Z,66.60
2018-06-04T13:59:54.610Z,70.80
2018-06-04T14:02:24.172Z,67.70
2018-06-04T14:04:52.762Z,66.10
2018-06-04T14:07:21.780Z,68.60
2018-06-04T14:22:48.754Z,65.80
2018-06-04T14:25:18.384Z,69.40
2018-06-04T14:27:46.969Z,70.70
2018-06-04T14:30:15.667Z,68.40
2018-06-04T14:32:44.395Z,73.00
2018-06-04T14:35:14.029Z,71.40
2018-06-04T14:37:42.750Z,70.90
2018-06-04T14:40:13.444Z,73.10
2018-06-04T14:42:42.068Z,75.10
2018-06-04T14:45:11.704Z,76.40
2018-06-04T14:47:40.348Z,77.00
2018-06-04T14:50:08.953Z,77.20
2018-06-04T14:52:37.617Z,76.30
2018-06-04T14:55:07.357Z,77.00
2018-06-04T14:57:36.033Z,80.20
2018-06-04T15:00:05.742Z,78.00
2018-06-04T15:02:34.374Z,77.70
2018-06-04T15:05:03.045Z,79.20
2018-06-04T15:20:30.113Z,78.10
2018-06-04T15:22:59.799Z,79.50
2018-06-04T15:25:30.376Z,75.70
2018-06-04T15:28:00.098Z,77.40
2018-06-04T15:30:28.694Z,77.30
2018-06-04T15:32:57.369Z,77.20
2018-06-04T15:35:26.187Z,76.40
2018-06-04T15:37:54.837Z,76.50
2018-06-04T15:40:23.613Z,79.00
2018-06-04T15:42:52.201Z,76.20
2018-06-04T15:45:20.818Z,77.20
2018-06-04T15:47:50.767Z,77.30
2018-06-04T15:50:20.614Z,78.40
2018-06-04T15:52:53.682Z,77.30
2018-06-04T15:55:25.754Z,75.20
2018-06-04T15:57:54.338Z,75.10
2018-06-04T16:00:24.951Z,75.50
2018-06-04T16:05:21.811Z,76.00
2018-06-04T16:07:51.639Z,74.70
2018-06-04T16:10:21.251Z,77.80
2018-06-04T16:12:49.894Z,76.80
2018-06-04T16:15:18.582Z,75.30
2018-06-04T16:17:47.188Z,74.50
2018-06-04T16:20:15.826Z,74.30
2018-06-04T16:22:44.401Z,73.80
2018-06-04T16:25:13.987Z,74.30
2018-06-04T16:27:42.730Z,75.30
2018-06-04T16:30:13.373Z,75.60
2018-06-04T16:32:42.284Z,75.60
2018-06-04T16:35:10.918Z,75.80
2018-06-04T16:50:42.480Z,74.20
2018-06-04T16:53:14.377Z,76.00
2018-06-04T16:55:43.140Z,75.90
2018-06-04T16:58:11.865Z,74.00
2018-06-04T17:00:40.486Z,76.90
2018-06-04T17:03:09.100Z,76.70
2018-06-04T17:05:37.697Z,76.80
2018-06-04T17:13:40.995Z,76.40
2018-06-04T17:18:49.514Z,78.70
2018-06-04T17:21:29.073Z,76.60
2018-06-04T17:23:58.015Z,75.80
2018-06-04T17:26:26.913Z,77.00
2018-06-04T17:28:55.605Z,76.10
2018-06-04T17:31:24.327Z,76.20
2018-06-04T17:33:53.010Z,76.60
2018-06-04T17:36:21.692Z,79.20
2018-06-04T17:38:50.454Z,80.70
2018-06-04T17:41:19.144Z,79.40
2018-06-04T17:43:47.865Z,82.90
2018-06-04T17:46:16.729Z,86.40
2018-06-04T17:48:45.395Z,89.30
2018-06-04T17:51:14.009Z,91.80
2018-06-04T17:53:45.432Z,91.80
2018-06-04T17:56:14.072Z,91.80
2018-06-04T17:58:42.684Z,91.90
2018-06-04T18:01:12.428Z,91.90
2018-06-04T18:03:41.062Z,91.90
2018-06-04T18:06:09.706Z,91.60
2018-06-04T18:08:38.641Z,91.10
2018-06-04T18:11:07.297Z,91.90
2018-06-04T18:13:35.999Z,91.30
2018-06-04T18:16:04.703Z,92.70
2018-06-04T18:18:33.396Z,93.00
2018-06-04T18:21:02.039Z,94.50
2018-06-04T18:23:30.670Z,95.60
2018-06-04T18:25:59.271Z,95.50
2018-06-04T18:28:27.898Z,96.50
2018-06-04T18:30:56.690Z,96.70
2018-06-04T18:33:25.358Z,96.10
2018-06-04T18:35:54.976Z,96.20
2018-06-04T18:38:23.827Z,98.80
2018-06-04T18:43:20.744Z,99.90
2018-06-04T18:45:49.482Z,99.40
2018-06-04T18:48:18.231Z,99.40
2018-06-04T18:50:46.862Z,98.80
2018-06-04T18:53:15.524Z,97.80
2018-06-04T18:55:44.164Z,99.90
2018-06-04T18:58:12.860Z,99.90
2018-06-04T19:00:41.522Z,99.90
2018-06-04T19:03:10.238Z,99.90
2018-06-04T19:05:39.886Z,98.60
2018-06-04T19:08:09.554Z,97.50
2018-06-04T19:10:38.265Z,96.90
2018-06-04T19:13:07.946Z,97.20
2018-06-04T19:15:36.678Z,96.30
2018-06-04T19:18:05.348Z,96.70
2018-06-04T19:20:34.020Z,96.70
2018-06-04T19:23:02.704Z,96.80
2018-06-04T19:25:31.395Z,97.00
2018-06-04T19:40:57.520Z,97.50
2018-06-04T19:43:26.187Z,98.20
2018-06-04T19:45:54.880Z,99.10
2018-06-04T19:48:24.223Z,99.00
2018-06-04T19:50:52.950Z,98.70
2018-06-04T19:53:21.673Z,97.10
2018-06-04T19:55:50.399Z,96.80
2018-06-04T19:58:19.104Z,96.90
2018-06-04T20:00:48.092Z,96.30
2018-06-04T20:03:18.595Z,96.50
2018-06-04T20:05:48.205Z,95.70
2018-06-04T20:08:16.920Z,96.00
2018-06-04T20:10:45.729Z,97.60
2018-06-04T20:13:14.376Z,96.80
2018-06-04T20:15:43.049Z,98.70
2018-06-04T20:18:11.845Z,99.90
2018-06-04T20:20:40.636Z,99.90
2018-06-04T20:23:09.322Z,99.90
2018-06-04T20:25:37.994Z,99.90
2018-06-04T20:28:06.747Z,99.90
2018-06-04T20:30:35.432Z,99.90
2018-06-04T20:35:32.475Z,99.90
2018-06-04T20:38:01.183Z,99.90
2018-06-04T20:40:30.049Z,99.90
2018-06-04T20:42:58.765Z,99.90
2018-06-04T20:45:27.486Z,99.90
2018-06-04T20:47:56.203Z,99.90
2018-06-04T20:50:24.915Z,99.90
2018-06-04T20:52:53.630Z,99.90
2018-06-04T20:55:22.413Z,99.90
2018-06-04T20:57:51.229Z,99.90
2018-06-04T21:00:19.922Z,99.90
2018-06-04T21:02:49.635Z,99.90
2018-06-04T21:05:18.345Z,99.90
2018-06-04T21:07:47.092Z,99.90
2018-06-04T21:10:15.875Z,99.90
2018-06-04T21:12:45.183Z,99.90
2018-06-04T21:15:13.915Z,99.90
2018-06-04T21:17:42.668Z,99.90
2018-06-04T21:20:11.388Z,99.90
2018-06-04T21:22:40.011Z,99.90
2018-06-04T21:25:08.712Z,99.90
2018-06-04T21:27:37.333Z,99.90
2018-06-04T21:30:06.228Z,99.90
2018-06-04T21:32:35.098Z,99.90
2018-06-04T21:35:04.068Z,99.90
2018-06-04T21:37:33.488Z,99.90
2018-06-04T21:40:02.944Z,99.90
2018-06-04T21:42:33.258Z,99.90
2018-06-04T21:45:03.672Z,99.90
2018-06-04T21:47:33.065Z,99.90
2018-06-04T21:50:02.478Z,99.90
2018-06-04T21:52:31.989Z,99.90
2018-06-04T21:55:01.055Z,99.90
2018-06-04T21:57:31.166Z,99.90
2018-06-04T22:00:00.515Z,99.90
2018-06-04T22:02:30.927Z,99.90
2018-06-04T22:05:01.176Z,99.90
2018-06-04T22:07:30.322Z,99.90
2018-06-04T22:09:59.737Z,99.90
2018-06-04T22:12:29.037Z,99.90
2018-06-04T22:14:58.273Z,99.90
2018-06-04T22:17:28.281Z,99.90
2018-06-04T22:19:57.012Z,99.90
2018-06-04T22:22:25.862Z,99.90
2018-06-04T22:24:54.625Z,99.90
2018-06-04T22:27:23.653Z,99.90
2018-06-04T22:29:52.434Z,99.90
2018-06-04T22:32:22.111Z,99.90
2018-06-04T22:34:50.777Z,99.90
2018-06-04T22:37:19.545Z,99.90
2018-06-04T22:39:48.290Z,99.90
2018-06-04T22:42:17.004Z,99.90
2018-06-04T22:44:45.640Z,99.90
2018-06-04T22:47:14.478Z,99.90
2018-06-04T22:49:44.215Z,99.90
2018-06-04T22:52:13.057Z,99.90
2018-06-04T22:54:41.747Z,99.90
2018-06-04T22:57:10.378Z,99.90
2018-06-04T22:59:39.014Z,99.90
2018-06-04T23:02:07.657Z,99.90
2018-06-04T23:04:36.380Z,99.90
2018-06-04T23:07:05.149Z,99.90
2018-06-04T23:09:33.801Z,99.90
2018-06-04T23:12:02.442Z,99.90
2018-06-04T23:14:31.123Z,99.90
2018-06-04T23:16:59.812Z,99.90
2018-06-04T23:19:28.483Z,99.90
2018-06-04T23:21:57.269Z,99.90
2018-06-04T23:24:25.974Z,99.90
2018-06-04T23:26:54.668Z,99.90
2018-06-04T23:29:23.405Z,99.90
2018-06-04T23:31:53.087Z,99.90
2018-06-04T23:34:21.808Z,99.90
2018-06-04T23:36:51.469Z,99.90
2018-06-04T23:39:20.180Z,99.90
2018-06-04T23:41:48.782Z,99.90
2018-06-04T23:44:18.464Z,99.90
2018-06-04T23:46:48.088Z,99.90
2018-06-04T23:49:16.672Z,99.90
2018-06-04T23:51:45.282Z,99.90
2018-06-04T23:54:14.033Z,99.90
2018-06-04T23:56:42.676Z,99.90
2018-06-04T23:59:11.311Z,99.90
